sensor_id;sensor_type;location;lat;lon;timestamp;pressure;altitude;pressure_sealevel;temperature;humidity
37856;BME280;23694;43.274;26.924;2022-09-16T00:01:28;98047.81;;;23.66;45.76
37856;BME280;23694;43.274;26.924;2022-09-16T00:03:55;98045.78;;;23.62;45.92
37856;BME280;23694;43.274;26.924;2022-09-16T00:06:26;98046.00;;;23.60;45.75
37856;BME280;23694;43.274;26.924;2022-09-16T00:08:54;98045.16;;;23.60;45.76
37856;BME280;23694;43.274;26.924;2022-09-16T00:11:20;98042.47;;;23.53;45.91
37856;BME280;23694;43.274;26.924;2022-09-16T00:13:47;98045.97;;;23.54;45.93
37856;BME280;23694;43.274;26.924;2022-09-16T00:16:22;98043.72;;;23.64;45.45
37856;BME280;23694;43.274;26.924;2022-09-16T00:18:52;98050.31;;;23.61;45.69
37856;BME280;23694;43.274;26.924;2022-09-16T00:21:19;98042.31;;;23.55;45.95
37856;BME280;23694;43.274;26.924;2022-09-16T00:23:45;98049.47;;;23.54;45.89
37856;BME280;23694;43.274;26.924;2022-09-16T00:26:11;98040.03;;;23.52;45.76
37856;BME280;23694;43.274;26.924;2022-09-16T00:28:37;98041.66;;;23.53;45.69
37856;BME280;23694;43.274;26.924;2022-09-16T00:31:03;98036.75;;;23.30;46.58
37856;BME280;23694;43.274;26.924;2022-09-16T00:33:30;98037.16;;;23.47;46.42
37856;BME280;23694;43.274;26.924;2022-09-16T00:36:14;98036.97;;;23.55;46.14
37856;BME280;23694;43.274;26.924;2022-09-16T00:38:41;98041.66;;;23.53;46.16
37856;BME280;23694;43.274;26.924;2022-09-16T00:41:13;98047.66;;;23.55;46.46
37856;BME280;23694;43.274;26.924;2022-09-16T00:43:58;98041.06;;;23.57;46.25
37856;BME280;23694;43.274;26.924;2022-09-16T00:46:41;98048.66;;;23.60;46.35
37856;BME280;23694;43.274;26.924;2022-09-16T00:49:18;98043.13;;;23.55;46.23
37856;BME280;23694;43.274;26.924;2022-09-16T00:51:48;98046.41;;;23.51;46.57
37856;BME280;23694;43.274;26.924;2022-09-16T00:54:16;98044.97;;;23.48;46.54
37856;BME280;23694;43.274;26.924;2022-09-16T00:56:46;98041.25;;;23.49;46.25
37856;BME280;23694;43.274;26.924;2022-09-16T01:01:42;98038.78;;;23.54;46.97
37856;BME280;23694;43.274;26.924;2022-09-16T01:04:17;98036.09;;;23.54;47.22
37856;BME280;23694;43.274;26.924;2022-09-16T01:06:44;98034.69;;;23.45;47.01
37856;BME280;23694;43.274;26.924;2022-09-16T01:09:11;98040.84;;;23.46;47.26
37856;BME280;23694;43.274;26.924;2022-09-16T01:11:37;98037.13;;;23.40;47.11
37856;BME280;23694;43.274;26.924;2022-09-16T01:14:04;98042.09;;;23.30;47.60
37856;BME280;23694;43.274;26.924;2022-09-16T01:16:58;98040.84;;;23.32;47.57
37856;BME280;23694;43.274;26.924;2022-09-16T01:19:31;98035.72;;;23.31;47.78
37856;BME280;23694;43.274;26.924;2022-09-16T01:25:02;98040.44;;;23.22;47.94
37856;BME280;23694;43.274;26.924;2022-09-16T01:33:29;98036.34;;;23.20;48.03
37856;BME280;23694;43.274;26.924;2022-09-16T01:38:54;98026.69;;;23.12;48.09
37856;BME280;23694;43.274;26.924;2022-09-16T01:41:32;98034.09;;;23.03;48.11
37856;BME280;23694;43.274;26.924;2022-09-16T01:44:11;98032.03;;;22.99;48.28
37856;BME280;23694;43.274;26.924;2022-09-16T01:46:47;98029.38;;;22.99;48.27
37856;BME280;23694;43.274;26.924;2022-09-16T01:49:27;98029.78;;;22.96;48.28
37856;BME280;23694;43.274;26.924;2022-09-16T01:54:44;98035.88;;;22.70;49.46
37856;BME280;23694;43.274;26.924;2022-09-16T01:57:16;98041.25;;;22.76;48.99
37856;BME280;23694;43.274;26.924;2022-09-16T02:00:05;98041.84;;;22.72;48.81
37856;BME280;23694;43.274;26.924;2022-09-16T02:02:43;98048.44;;;22.76;47.39
37856;BME280;23694;43.274;26.924;2022-09-16T02:05:16;98045.00;;;22.89;48.39
37856;BME280;23694;43.274;26.924;2022-09-16T02:07:47;98041.69;;;22.87;48.03
37856;BME280;23694;43.274;26.924;2022-09-16T02:10:22;98049.50;;;22.95;48.42
37856;BME280;23694;43.274;26.924;2022-09-16T02:12:51;98047.66;;;22.95;47.70
37856;BME280;23694;43.274;26.924;2022-09-16T02:15:22;98050.94;;;22.97;48.35
37856;BME280;23694;43.274;26.924;2022-09-16T02:17:58;98055.47;;;23.03;48.46
37856;BME280;23694;43.274;26.924;2022-09-16T02:20:28;98046.84;;;23.01;48.59
37856;BME280;23694;43.274;26.924;2022-09-16T02:23:06;98053.00;;;23.02;48.42
37856;BME280;23694;43.274;26.924;2022-09-16T02:25:37;98054.03;;;23.01;48.56
37856;BME280;23694;43.274;26.924;2022-09-16T02:28:09;98049.72;;;23.00;48.10
37856;BME280;23694;43.274;26.924;2022-09-16T02:30:41;98035.13;;;22.96;48.38
37856;BME280;23694;43.274;26.924;2022-09-16T02:33:09;98040.06;;;22.92;48.53
37856;BME280;23694;43.274;26.924;2022-09-16T02:35:38;98033.91;;;22.85;48.84
37856;BME280;23694;43.274;26.924;2022-09-16T02:38:13;98040.88;;;22.86;48.68
37856;BME280;23694;43.274;26.924;2022-09-16T02:40:47;98043.97;;;22.90;48.23
37856;BME280;23694;43.274;26.924;2022-09-16T02:43:15;98047.25;;;22.92;48.12
37856;BME280;23694;43.274;26.924;2022-09-16T02:45:51;98044.16;;;22.95;48.21
37856;BME280;23694;43.274;26.924;2022-09-16T02:48:32;98045.59;;;22.91;48.02
37856;BME280;23694;43.274;26.924;2022-09-16T02:51:08;98050.53;;;22.94;47.96
37856;BME280;23694;43.274;26.924;2022-09-16T02:54:04;98047.66;;;22.95;47.48
37856;BME280;23694;43.274;26.924;2022-09-16T02:56:37;98043.56;;;22.99;47.16
37856;BME280;23694;43.274;26.924;2022-09-16T02:59:06;98039.84;;;23.00;46.95
37856;BME280;23694;43.274;26.924;2022-09-16T03:01:42;98047.84;;;23.14;46.44
37856;BME280;23694;43.274;26.924;2022-09-16T03:04:10;98045.38;;;23.19;46.35
37856;BME280;23694;43.274;26.924;2022-09-16T03:06:36;98043.13;;;23.22;45.89
37856;BME280;23694;43.274;26.924;2022-09-16T03:09:06;98042.28;;;23.28;45.96
37856;BME280;23694;43.274;26.924;2022-09-16T03:19:47;98047.63;;;23.28;46.09
37856;BME280;23694;43.274;26.924;2022-09-16T03:28:13;98059.75;;;23.24;47.29
37856;BME280;23694;43.274;26.924;2022-09-16T03:30:54;98062.66;;;23.16;47.41
37856;BME280;23694;43.274;26.924;2022-09-16T03:33:30;98061.63;;;22.97;47.87
37856;BME280;23694;43.274;26.924;2022-09-16T03:36:00;98066.28;;;22.75;48.83
37856;BME280;23694;43.274;26.924;2022-09-16T03:38:29;98071.00;;;22.73;49.04
37856;BME280;23694;43.274;26.924;2022-09-16T03:40:56;98062.56;;;22.57;49.15
37856;BME280;23694;43.274;26.924;2022-09-16T03:43:23;98073.41;;;22.42;48.80
37856;BME280;23694;43.274;26.924;2022-09-16T03:45:50;98067.03;;;22.43;49.41
37856;BME280;23694;43.274;26.924;2022-09-16T03:48:16;98061.91;;;22.41;48.07
37856;BME280;23694;43.274;26.924;2022-09-16T03:50:42;98073.00;;;22.52;48.30
37856;BME280;23694;43.274;26.924;2022-09-16T03:53:08;98061.75;;;22.63;47.64
37856;BME280;23694;43.274;26.924;2022-09-16T03:55:34;98051.69;;;22.71;46.83
37856;BME280;23694;43.274;26.924;2022-09-16T03:58:00;98061.84;;;22.96;45.35
37856;BME280;23694;43.274;26.924;2022-09-16T04:00:26;98050.13;;;23.17;44.04
37856;BME280;23694;43.274;26.924;2022-09-16T04:02:54;98069.81;;;23.35;43.90
37856;BME280;23694;43.274;26.924;2022-09-16T04:05:20;98070.03;;;23.47;43.04
37856;BME280;23694;43.274;26.924;2022-09-16T04:07:49;98078.66;;;23.69;42.93
37856;BME280;23694;43.274;26.924;2022-09-16T04:10:15;98080.47;;;23.82;42.17
37856;BME280;23694;43.274;26.924;2022-09-16T04:12:41;98087.22;;;23.97;41.65
37856;BME280;23694;43.274;26.924;2022-09-16T04:15:08;98076.06;;;24.14;41.71
37856;BME280;23694;43.274;26.924;2022-09-16T04:17:34;98077.22;;;24.38;40.13
37856;BME280;23694;43.274;26.924;2022-09-16T04:20:00;98073.63;;;24.57;40.12
37856;BME280;23694;43.274;26.924;2022-09-16T04:22:28;98067.13;;;24.78;39.54
37856;BME280;23694;43.274;26.924;2022-09-16T04:24:55;98073.34;;;25.03;39.12
37856;BME280;23694;43.274;26.924;2022-09-16T04:27:22;98074.22;;;25.22;38.22
37856;BME280;23694;43.274;26.924;2022-09-16T04:29:48;98076.31;;;25.45;38.08
37856;BME280;23694;43.274;26.924;2022-09-16T04:32:14;98082.47;;;25.70;37.85
37856;BME280;23694;43.274;26.924;2022-09-16T04:34:40;98086.25;;;26.06;37.14
37856;BME280;23694;43.274;26.924;2022-09-16T04:37:08;98084.66;;;26.35;36.36
37856;BME280;23694;43.274;26.924;2022-09-16T04:39:34;98076.31;;;26.73;35.72
37856;BME280;23694;43.274;26.924;2022-09-16T04:42:00;98074.09;;;27.11;34.81
37856;BME280;23694;43.274;26.924;2022-09-16T04:44:26;98083.25;;;27.57;33.71
37856;BME280;23694;43.274;26.924;2022-09-16T04:46:52;98091.78;;;28.01;33.47
37856;BME280;23694;43.274;26.924;2022-09-16T04:49:18;98085.31;;;28.54;32.84
37856;BME280;23694;43.274;26.924;2022-09-16T04:51:44;98091.13;;;28.74;32.27
37856;BME280;23694;43.274;26.924;2022-09-16T04:54:10;98081.41;;;28.73;32.34
37856;BME280;23694;43.274;26.924;2022-09-16T04:56:37;98074.34;;;28.84;32.13
37856;BME280;23694;43.274;26.924;2022-09-16T04:59:05;98087.59;;;29.19;32.12
37856;BME280;23694;43.274;26.924;2022-09-16T05:01:34;98092.50;;;29.72;31.21
37856;BME280;23694;43.274;26.924;2022-09-16T05:04:03;98096.09;;;30.16;30.34
37856;BME280;23694;43.274;26.924;2022-09-16T05:06:32;98084.59;;;29.87;30.51
37856;BME280;23694;43.274;26.924;2022-09-16T05:08:59;98084.38;;;29.50;30.80
37856;BME280;23694;43.274;26.924;2022-09-16T05:11:27;98084.66;;;29.71;30.55
37856;BME280;23694;43.274;26.924;2022-09-16T05:13:57;98087.69;;;30.35;29.99
37856;BME280;23694;43.274;26.924;2022-09-16T05:16:23;98087.06;;;31.30;28.11
37856;BME280;23694;43.274;26.924;2022-09-16T05:18:52;98093.78;;;32.02;27.58
37856;BME280;23694;43.274;26.924;2022-09-16T05:21:20;98099.22;;;32.69;26.83
37856;BME280;23694;43.274;26.924;2022-09-16T05:23:47;98095.25;;;33.18;26.27
37856;BME280;23694;43.274;26.924;2022-09-16T05:26:19;98101.78;;;33.83;25.18
37856;BME280;23694;43.274;26.924;2022-09-16T05:28:45;98091.28;;;34.30;24.63
37856;BME280;23694;43.274;26.924;2022-09-16T05:31:17;98095.38;;;34.23;24.32
37856;BME280;23694;43.274;26.924;2022-09-16T05:33:47;98101.13;;;34.11;24.62
37856;BME280;23694;43.274;26.924;2022-09-16T05:36:18;98097.16;;;33.48;25.39
37856;BME280;23694;43.274;26.924;2022-09-16T05:38:44;98099.84;;;33.12;25.45
37856;BME280;23694;43.274;26.924;2022-09-16T05:41:11;98105.03;;;33.59;25.58
37856;BME280;23694;43.274;26.924;2022-09-16T05:43:37;98098.31;;;34.42;23.79
37856;BME280;23694;43.274;26.924;2022-09-16T05:46:05;98099.22;;;35.20;23.23
37856;BME280;23694;43.274;26.924;2022-09-16T05:48:32;98102.81;;;35.50;22.33
37856;BME280;23694;43.274;26.924;2022-09-16T05:51:04;98103.66;;;35.45;22.79
37856;BME280;23694;43.274;26.924;2022-09-16T05:53:31;98109.69;;;35.71;22.80
37856;BME280;23694;43.274;26.924;2022-09-16T05:56:06;98116.91;;;35.57;22.52
37856;BME280;23694;43.274;26.924;2022-09-16T05:58:34;98107.28;;;34.47;23.64
37856;BME280;23694;43.274;26.924;2022-09-16T06:01:08;98115.91;;;33.44;25.74
37856;BME280;23694;43.274;26.924;2022-09-16T06:03:36;98120.03;;;32.48;26.35
37856;BME280;23694;43.274;26.924;2022-09-16T06:08:33;98120.66;;;30.80;28.20
37856;BME280;23694;43.274;26.924;2022-09-16T06:11:01;98118.41;;;30.28;29.17
37856;BME280;23694;43.274;26.924;2022-09-16T06:13:27;98115.16;;;29.71;29.97
37856;BME280;23694;43.274;26.924;2022-09-16T06:15:53;98119.97;;;29.35;30.75
37856;BME280;23694;43.274;26.924;2022-09-16T06:18:21;98129.47;;;29.38;30.65
37856;BME280;23694;43.274;26.924;2022-09-16T06:20:47;98129.31;;;29.61;30.66
37856;BME280;23694;43.274;26.924;2022-09-16T06:23:14;98127.19;;;29.63;30.35
37856;BME280;23694;43.274;26.924;2022-09-16T06:25:40;98127.84;;;29.71;31.42
37856;BME280;23694;43.274;26.924;2022-09-16T06:28:06;98129.19;;;29.90;30.90
37856;BME280;23694;43.274;26.924;2022-09-16T06:30:32;98130.47;;;30.21;30.32
37856;BME280;23694;43.274;26.924;2022-09-16T06:32:58;98138.00;;;30.19;30.19
37856;BME280;23694;43.274;26.924;2022-09-16T06:35:24;98126.56;;;30.12;30.94
37856;BME280;23694;43.274;26.924;2022-09-16T06:37:50;98128.66;;;30.26;30.30
37856;BME280;23694;43.274;26.924;2022-09-16T06:40:16;98113.75;;;30.46;30.19
37856;BME280;23694;43.274;26.924;2022-09-16T06:42:42;98120.59;;;30.53;29.42
37856;BME280;23694;43.274;26.924;2022-09-16T06:45:08;98120.19;;;30.62;29.39
37856;BME280;23694;43.274;26.924;2022-09-16T06:47:35;98121.53;;;30.59;29.57
37856;BME280;23694;43.274;26.924;2022-09-16T06:50:02;98131.16;;;30.77;29.99
37856;BME280;23694;43.274;26.924;2022-09-16T06:52:30;98126.31;;;30.79;29.49
37856;BME280;23694;43.274;26.924;2022-09-16T06:54:56;98120.81;;;30.96;29.47
37856;BME280;23694;43.274;26.924;2022-09-16T06:57:22;98120.72;;;30.85;29.71
37856;BME280;23694;43.274;26.924;2022-09-16T06:59:49;98123.50;;;30.69;29.11
37856;BME280;23694;43.274;26.924;2022-09-16T07:02:15;98136.50;;;30.50;30.10
37856;BME280;23694;43.274;26.924;2022-09-16T07:04:42;98134.16;;;30.15;30.42
37856;BME280;23694;43.274;26.924;2022-09-16T07:07:08;98135.00;;;30.15;30.43
37856;BME280;23694;43.274;26.924;2022-09-16T07:09:34;98140.97;;;29.84;30.36
37856;BME280;23694;43.274;26.924;2022-09-16T07:12:00;98151.63;;;29.74;30.74
37856;BME280;23694;43.274;26.924;2022-09-16T07:14:28;98154.66;;;29.77;30.89
37856;BME280;23694;43.274;26.924;2022-09-16T07:16:54;98161.13;;;29.76;31.32
37856;BME280;23694;43.274;26.924;2022-09-16T07:19:20;98160.47;;;29.69;30.95
37856;BME280;23694;43.274;26.924;2022-09-16T07:21:46;98148.34;;;29.72;30.76
37856;BME280;23694;43.274;26.924;2022-09-16T07:24:13;98158.84;;;30.02;30.89
37856;BME280;23694;43.274;26.924;2022-09-16T07:26:40;98156.72;;;30.04;30.33
37856;BME280;23694;43.274;26.924;2022-09-16T07:29:10;98157.09;;;29.95;30.54
37856;BME280;23694;43.274;26.924;2022-09-16T07:31:37;98159.47;;;30.09;30.16
37856;BME280;23694;43.274;26.924;2022-09-16T07:34:05;98159.72;;;30.07;29.77
37856;BME280;23694;43.274;26.924;2022-09-16T07:36:36;98151.69;;;30.12;29.79
37856;BME280;23694;43.274;26.924;2022-09-16T07:39:03;98163.81;;;30.32;30.06
37856;BME280;23694;43.274;26.924;2022-09-16T07:41:43;98152.31;;;30.41;29.84
37856;BME280;23694;43.274;26.924;2022-09-16T07:44:16;98152.00;;;30.38;29.54
37856;BME280;23694;43.274;26.924;2022-09-16T07:46:42;98152.69;;;30.50;29.38
37856;BME280;23694;43.274;26.924;2022-09-16T07:49:12;98151.81;;;30.61;29.15
37856;BME280;23694;43.274;26.924;2022-09-16T07:51:38;98145.81;;;30.81;29.17
37856;BME280;23694;43.274;26.924;2022-09-16T07:54:06;98141.66;;;31.00;28.49
37856;BME280;23694;43.274;26.924;2022-09-16T07:56:35;98143.03;;;31.03;28.43
37856;BME280;23694;43.274;26.924;2022-09-16T07:59:03;98139.09;;;31.37;28.65
37856;BME280;23694;43.274;26.924;2022-09-16T08:01:31;98138.00;;;31.38;27.66
37856;BME280;23694;43.274;26.924;2022-09-16T08:03:58;98147.16;;;31.32;28.07
37856;BME280;23694;43.274;26.924;2022-09-16T08:06:27;98138.06;;;31.16;28.91
37856;BME280;23694;43.274;26.924;2022-09-16T08:08:55;98143.09;;;31.08;28.68
37856;BME280;23694;43.274;26.924;2022-09-16T08:11:22;98148.19;;;31.04;28.98
37856;BME280;23694;43.274;26.924;2022-09-16T08:13:49;98164.94;;;31.23;28.88
37856;BME280;23694;43.274;26.924;2022-09-16T08:16:17;98149.03;;;31.32;28.70
37856;BME280;23694;43.274;26.924;2022-09-16T08:18:45;98138.88;;;31.44;28.48
37856;BME280;23694;43.274;26.924;2022-09-16T08:21:14;98146.25;;;31.53;28.08
37856;BME280;23694;43.274;26.924;2022-09-16T08:23:40;98153.22;;;31.81;28.39
37856;BME280;23694;43.274;26.924;2022-09-16T08:26:08;98150.63;;;31.92;27.82
37856;BME280;23694;43.274;26.924;2022-09-16T08:28:37;98153.63;;;31.95;28.22
37856;BME280;23694;43.274;26.924;2022-09-16T08:31:04;98162.22;;;32.29;27.39
37856;BME280;23694;43.274;26.924;2022-09-16T08:33:30;98156.19;;;32.22;27.51
37856;BME280;23694;43.274;26.924;2022-09-16T08:36:01;98158.00;;;32.06;27.24
37856;BME280;23694;43.274;26.924;2022-09-16T08:38:29;98157.47;;;32.04;27.64
37856;BME280;23694;43.274;26.924;2022-09-16T08:46:55;98150.50;;;32.24;26.98
37856;BME280;23694;43.274;26.924;2022-09-16T08:49:39;98149.56;;;31.98;27.56
37856;BME280;23694;43.274;26.924;2022-09-16T08:52:28;98152.84;;;32.00;27.62
37856;BME280;23694;43.274;26.924;2022-09-16T08:55:00;98149.09;;;32.11;27.86
37856;BME280;23694;43.274;26.924;2022-09-16T08:57:31;98153.00;;;32.30;27.81
37856;BME280;23694;43.274;26.924;2022-09-16T09:00:09;98165.56;;;32.46;27.97
37856;BME280;23694;43.274;26.924;2022-09-16T09:05:24;98148.56;;;32.71;27.90
37856;BME280;23694;43.274;26.924;2022-09-16T09:08:15;98141.34;;;32.97;27.01
37856;BME280;23694;43.274;26.924;2022-09-16T09:10:51;98131.00;;;32.84;27.02
37856;BME280;23694;43.274;26.924;2022-09-16T09:18:56;98133.75;;;32.94;27.26
37856;BME280;23694;43.274;26.924;2022-09-16T09:21:42;98134.59;;;33.20;26.78
37856;BME280;23694;43.274;26.924;2022-09-16T09:26:57;98146.78;;;33.07;26.90
37856;BME280;23694;43.274;26.924;2022-09-16T09:29:48;98139.16;;;32.94;26.65
37856;BME280;23694;43.274;26.924;2022-09-16T09:32:40;98140.50;;;32.92;26.76
37856;BME280;23694;43.274;26.924;2022-09-16T09:45:50;98108.50;;;32.84;26.89
37856;BME280;23694;43.274;26.924;2022-09-16T09:48:23;98120.69;;;32.81;26.69
37856;BME280;23694;43.274;26.924;2022-09-16T09:50:52;98124.78;;;32.94;26.87
37856;BME280;23694;43.274;26.924;2022-09-16T09:53:26;98123.47;;;33.17;26.87
37856;BME280;23694;43.274;26.924;2022-09-16T09:59:37;98120.19;;;33.15;25.76
37856;BME280;23694;43.274;26.924;2022-09-16T10:01:43;98118.06;;;33.17;26.10
37856;BME280;23694;43.274;26.924;2022-09-16T10:04:15;98104.19;;;33.08;26.31
37856;BME280;23694;43.274;26.924;2022-09-16T10:06:42;98112.06;;;33.09;26.43
37856;BME280;23694;43.274;26.924;2022-09-16T10:09:13;98118.03;;;33.06;26.24
37856;BME280;23694;43.274;26.924;2022-09-16T10:11:52;98124.25;;;33.07;26.06
37856;BME280;23694;43.274;26.924;2022-09-16T10:14:30;98112.88;;;33.10;26.35
37856;BME280;23694;43.274;26.924;2022-09-16T10:17:02;98105.81;;;33.09;26.39
37856;BME280;23694;43.274;26.924;2022-09-16T10:19:31;98109.06;;;33.11;25.97
37856;BME280;23694;43.274;26.924;2022-09-16T10:22:32;98110.97;;;33.00;26.58
37856;BME280;23694;43.274;26.924;2022-09-16T10:25:04;98105.00;;;33.08;26.35
37856;BME280;23694;43.274;26.924;2022-09-16T10:27:37;98116.91;;;32.87;27.14
37856;BME280;23694;43.274;26.924;2022-09-16T10:32:44;98112.59;;;33.01;26.39
37856;BME280;23694;43.274;26.924;2022-09-16T10:35:19;98113.97;;;33.19;26.27
37856;BME280;23694;43.274;26.924;2022-09-16T10:37:52;98104.44;;;33.06;25.79
37856;BME280;23694;43.274;26.924;2022-09-16T10:40:19;98113.69;;;33.05;26.30
37856;BME280;23694;43.274;26.924;2022-09-16T10:42:49;98124.81;;;33.14;25.92
37856;BME280;23694;43.274;26.924;2022-09-16T10:45:25;98121.31;;;33.19;26.26
37856;BME280;23694;43.274;26.924;2022-09-16T10:47:55;98106.13;;;33.18;25.99
37856;BME280;23694;43.274;26.924;2022-09-16T10:50:22;98121.84;;;33.26;26.27
37856;BME280;23694;43.274;26.924;2022-09-16T10:52:49;98110.72;;;33.22;25.83
37856;BME280;23694;43.274;26.924;2022-09-16T10:57:45;98116.44;;;33.26;25.88
37856;BME280;23694;43.274;26.924;2022-09-16T11:10:56;98091.47;;;33.49;26.02
37856;BME280;23694;43.274;26.924;2022-09-16T11:21:43;98093.09;;;33.20;25.95
37856;BME280;23694;43.274;26.924;2022-09-16T11:37:34;98073.81;;;33.26;25.96
37856;BME280;23694;43.274;26.924;2022-09-16T11:42:42;98082.50;;;33.23;26.41
37856;BME280;23694;43.274;26.924;2022-09-16T11:45:41;98077.34;;;33.22;26.28
37856;BME280;23694;43.274;26.924;2022-09-16T11:52:09;98076.56;;;33.36;26.14
37856;BME280;23694;43.274;26.924;2022-09-16T11:56:53;98081.72;;;33.38;26.62
37856;BME280;23694;43.274;26.924;2022-09-16T12:01:48;98085.22;;;33.44;26.39
37856;BME280;23694;43.274;26.924;2022-09-16T12:06:59;98083.59;;;33.17;26.54
37856;BME280;23694;43.274;26.924;2022-09-16T12:09:36;98086.56;;;33.10;26.45
37856;BME280;23694;43.274;26.924;2022-09-16T12:12:16;98086.00;;;33.03;26.82
37856;BME280;23694;43.274;26.924;2022-09-16T12:15:13;98065.66;;;33.06;26.61
37856;BME280;23694;43.274;26.924;2022-09-16T12:17:52;98053.44;;;32.88;27.30
37856;BME280;23694;43.274;26.924;2022-09-16T12:20:27;98030.41;;;33.01;26.92
37856;BME280;23694;43.274;26.924;2022-09-16T12:23:11;98039.09;;;33.18;26.82
37856;BME280;23694;43.274;26.924;2022-09-16T12:31:22;98030.69;;;33.20;27.01
37856;BME280;23694;43.274;26.924;2022-09-16T12:34:07;98014.13;;;33.26;26.72
37856;BME280;23694;43.274;26.924;2022-09-16T12:36:36;98016.84;;;33.36;26.21
37856;BME280;23694;43.274;26.924;2022-09-16T12:39:04;98016.59;;;33.33;27.02
37856;BME280;23694;43.274;26.924;2022-09-16T12:44:19;98019.28;;;33.33;26.37
37856;BME280;23694;43.274;26.924;2022-09-16T12:47:10;98014.66;;;33.23;26.61
37856;BME280;23694;43.274;26.924;2022-09-16T12:55:03;98024.97;;;32.86;27.07
37856;BME280;23694;43.274;26.924;2022-09-16T13:02:35;98022.81;;;32.88;26.78
37856;BME280;23694;43.274;26.924;2022-09-16T13:05:17;98018.19;;;32.83;26.52
37856;BME280;23694;43.274;26.924;2022-09-16T13:07:49;98023.31;;;32.74;26.63
37856;BME280;23694;43.274;26.924;2022-09-16T13:12:57;98029.78;;;32.53;27.40
37856;BME280;23694;43.274;26.924;2022-09-16T13:15:33;98018.91;;;32.43;27.77
37856;BME280;23694;43.274;26.924;2022-09-16T13:18:20;98019.16;;;32.31;27.96
37856;BME280;23694;43.274;26.924;2022-09-16T13:20:49;98025.09;;;32.28;27.88
37856;BME280;23694;43.274;26.924;2022-09-16T13:23:33;98023.47;;;32.27;27.70
37856;BME280;23694;43.274;26.924;2022-09-16T13:26:06;98031.84;;;32.21;27.95
37856;BME280;23694;43.274;26.924;2022-09-16T13:33:47;98019.66;;;32.23;28.06
37856;BME280;23694;43.274;26.924;2022-09-16T13:38:52;98015.03;;;32.19;28.24
37856;BME280;23694;43.274;26.924;2022-09-16T13:41:30;98019.59;;;32.03;28.26
37856;BME280;23694;43.274;26.924;2022-09-16T13:43:57;98017.72;;;32.08;27.95
37856;BME280;23694;43.274;26.924;2022-09-16T13:46:30;98019.53;;;31.93;27.73
37856;BME280;23694;43.274;26.924;2022-09-16T13:51:47;98025.41;;;31.74;28.07
37856;BME280;23694;43.274;26.924;2022-09-16T13:54:29;98025.50;;;31.47;28.13
37856;BME280;23694;43.274;26.924;2022-09-16T14:02:24;98028.91;;;31.01;28.42
37856;BME280;23694;43.274;26.924;2022-09-16T14:05:00;98041.53;;;30.90;29.23
37856;BME280;23694;43.274;26.924;2022-09-16T14:10:25;98030.84;;;30.73;30.65
37856;BME280;23694;43.274;26.924;2022-09-16T14:13:07;98028.31;;;30.62;30.65
37856;BME280;23694;43.274;26.924;2022-09-16T14:15:42;98021.94;;;30.51;31.20
37856;BME280;23694;43.274;26.924;2022-09-16T14:18:13;98028.50;;;30.33;31.36
37856;BME280;23694;43.274;26.924;2022-09-16T14:23:22;98046.56;;;30.06;31.41
37856;BME280;23694;43.274;26.924;2022-09-16T14:25:49;98072.44;;;29.85;32.44
37856;BME280;23694;43.274;26.924;2022-09-16T14:30:54;98113.94;;;29.62;34.98
37856;BME280;23694;43.274;26.924;2022-09-16T14:33:29;98095.66;;;29.47;37.25
37856;BME280;23694;43.274;26.924;2022-09-16T14:35:58;98098.97;;;29.38;41.09
37856;BME280;23694;43.274;26.924;2022-09-16T14:38:36;98045.84;;;29.04;40.49
37856;BME280;23694;43.274;26.924;2022-09-16T14:41:07;98049.59;;;29.03;42.07
37856;BME280;23694;43.274;26.924;2022-09-16T14:43:36;98036.59;;;29.00;41.16
37856;BME280;23694;43.274;26.924;2022-09-16T14:46:05;98038.72;;;28.98;42.72
37856;BME280;23694;43.274;26.924;2022-09-16T14:48:34;98041.19;;;29.00;43.57
37856;BME280;23694;43.274;26.924;2022-09-16T14:51:09;98049.09;;;28.90;44.88
37856;BME280;23694;43.274;26.924;2022-09-16T14:53:38;98051.19;;;28.71;46.38
37856;BME280;23694;43.274;26.924;2022-09-16T14:56:04;98046.28;;;28.39;47.04
37856;BME280;23694;43.274;26.924;2022-09-16T14:58:31;98054.75;;;28.31;46.78
37856;BME280;23694;43.274;26.924;2022-09-16T15:01:02;98058.97;;;28.16;47.01
37856;BME280;23694;43.274;26.924;2022-09-16T15:06:02;98070.63;;;27.81;45.55
37856;BME280;23694;43.274;26.924;2022-09-16T15:11:18;98058.81;;;27.59;46.28
37856;BME280;23694;43.274;26.924;2022-09-16T15:13:46;98067.69;;;27.59;47.64
37856;BME280;23694;43.274;26.924;2022-09-16T15:16:16;98068.06;;;27.63;48.44
37856;BME280;23694;43.274;26.924;2022-09-16T15:18:58;98063.28;;;27.65;48.09
37856;BME280;23694;43.274;26.924;2022-09-16T15:21:27;98065.25;;;27.58;44.57
37856;BME280;23694;43.274;26.924;2022-09-16T15:23:59;98069.91;;;27.51;42.03
37856;BME280;23694;43.274;26.924;2022-09-16T15:26:45;98072.97;;;27.54;40.49
37856;BME280;23694;43.274;26.924;2022-09-16T15:29:27;98055.88;;;27.48;40.61
37856;BME280;23694;43.274;26.924;2022-09-16T15:32:14;98049.22;;;27.51;40.53
37856;BME280;23694;43.274;26.924;2022-09-16T15:34:43;98063.00;;;27.55;40.72
37856;BME280;23694;43.274;26.924;2022-09-16T15:37:29;98055.19;;;27.53;40.28
37856;BME280;23694;43.274;26.924;2022-09-16T15:40:17;98053.53;;;27.52;40.74
37856;BME280;23694;43.274;26.924;2022-09-16T15:42:47;98063.38;;;27.58;40.28
37856;BME280;23694;43.274;26.924;2022-09-16T15:45:16;98052.84;;;27.45;40.94
37856;BME280;23694;43.274;26.924;2022-09-16T15:47:55;98041.50;;;27.55;40.54
37856;BME280;23694;43.274;26.924;2022-09-16T15:50:22;98049.00;;;27.64;40.44
37856;BME280;23694;43.274;26.924;2022-09-16T15:55:53;98044.91;;;27.73;40.73
37856;BME280;23694;43.274;26.924;2022-09-16T15:58:35;98056.03;;;27.65;40.83
37856;BME280;23694;43.274;26.924;2022-09-16T16:01:20;98057.75;;;27.60;40.70